Time;durP1;ratioP1;P1;durP2;ratioP2;P2;SDS_P1;SDS_P2;PMS_P1;PMS_P2;Temp;Humidity;BMP_temperature;BMP_pressure;BME280_temperature;BME280_humidity;BME280_pressure;Samples;Min_cycle;Max_cycle;Signal;HPM_P1;HPM_P2
2022/03/25 00:01:17;;;;;;;11.15;8.07;;;;;;;9.88;24.71;95429.91;5010339;28;20040;-67
2022/03/25 00:03:43;;;;;;;13.20;8.70;;;;;;;10.46;23.99;95510.16;5021986;28;20034;-67
2022/03/25 00:06:09;;;;;;;13.07;8.45;;;;;;;10.66;24.21;95532.31;5010058;28;20140;-66
2022/03/25 00:08:34;;;;;;;13.73;8.60;;;;;;;10.63;23.98;95512.66;5009643;28;20025;-66
2022/03/25 00:11:00;;;;;;;12.10;8.00;;;;;;;10.61;24.01;95498.22;5009940;28;20033;-65
2022/03/25 00:13:26;;;;;;;10.70;7.57;;;;;;;10.80;23.72;95522.03;5009877;28;20092;-67
2022/03/25 00:15:51;;;;;;;14.10;7.55;;;;;;;10.69;23.64;95502.91;5008975;28;20073;-70
2022/03/25 00:18:17;;;;;;;13.35;8.98;;;;;;;10.47;23.80;95486.88;5010029;28;20113;-67
2022/03/25 00:20:44;;;;;;;15.70;8.73;;;;;;;10.85;23.58;95525.22;5014847;28;20107;-66
2022/03/25 00:23:10;;;;;;;13.38;8.68;;;;;;;10.63;23.87;95486.88;5029484;28;20132;-67
2022/03/25 00:25:35;;;;;;;13.52;9.32;;;;;;;10.44;24.00;95463.03;5028554;28;20835;-66
2022/03/25 00:28:01;;;;;;;13.73;9.07;;;;;;;10.80;23.89;95514.28;5029257;28;20477;-65
2022/03/25 00:30:27;;;;;;;10.40;7.57;;;;;;;10.81;23.74;95515.97;5029403;28;20033;-65
2022/03/25 00:32:54;;;;;;;13.43;7.97;;;;;;;10.82;23.54;95516.78;5028677;28;20159;-67
2022/03/25 00:35:20;;;;;;;17.60;8.95;;;;;;;10.80;23.77;95503.16;5028374;28;20409;-67
2022/03/25 00:37:46;;;;;;;12.45;7.55;;;;;;;9.24;23.43;95256.56;5027787;28;20052;-66
2022/03/25 00:40:12;;;;;;;13.45;7.75;;;;;;;10.40;23.86;95439.16;5022396;28;20417;-67
2022/03/25 00:42:37;;;;;;;12.00;7.63;;;;;;;10.83;24.05;95498.66;5013763;28;20432;-65
2022/03/25 00:45:05;;;;;;;12.05;7.57;;;;;;;10.72;24.14;95479.53;5028540;28;20090;-65
2022/03/25 00:47:30;;;;;;;12.45;8.02;;;;;;;10.66;23.86;95466.06;5028167;28;20489;-66
2022/03/25 00:49:56;;;;;;;8.70;6.90;;;;;;;10.80;23.84;95495.41;5028243;28;20045;-67
2022/03/25 00:52:22;;;;;;;11.52;7.70;;;;;;;10.78;24.43;95492.91;5028006;28;20068;-68
2022/03/25 00:54:48;;;;;;;12.00;7.28;;;;;;;10.59;23.96;95456.19;5028292;28;20493;-66
2022/03/25 00:57:14;;;;;;;12.50;7.53;;;;;;;10.59;23.75;95459.59;5027938;28;20408;-68
2022/03/25 00:59:39;;;;;;;11.85;7.53;;;;;;;10.43;24.05;95433.03;5021321;28;20029;-66
2022/03/25 01:02:05;;;;;;;11.70;7.90;;;;;;;10.55;23.70;95463.25;5008879;28;20021;-65
2022/03/25 01:04:30;;;;;;;12.40;7.95;;;;;;;10.38;24.12;95446.16;5009128;28;20129;-67
2022/03/25 01:06:56;;;;;;;10.77;6.68;;;;;;;10.47;23.93;95463.69;5009266;28;20030;-67
2022/03/25 01:09:22;;;;;;;11.73;6.90;;;;;;;10.56;23.96;95477.81;5028903;28;20037;-66
2022/03/25 01:11:48;;;;;;;14.50;7.68;;;;;;;10.57;24.66;95481.22;5028549;28;20041;-67
2022/03/25 01:14:13;;;;;;;11.82;7.68;;;;;;;10.46;23.99;95481.81;5028684;28;20064;-66
2022/03/25 01:16:39;;;;;;;12.82;8.02;;;;;;;9.81;24.40;95379.66;5028652;28;20465;-68
2022/03/25 01:19:05;;;;;;;16.40;7.75;;;;;;;10.14;24.98;95432.00;5027756;28;21033;-65
2022/03/25 01:21:31;;;;;;;12.57;7.18;;;;;;;10.24;24.95;95458.94;5028280;28;20053;-66
2022/03/25 01:23:57;;;;;;;10.10;7.05;;;;;;;10.38;24.78;95476.25;5026987;28;20072;-67
2022/03/25 01:26:23;;;;;;;9.77;6.82;;;;;;;10.24;24.92;95470.06;5027822;28;20509;-66
2022/03/25 01:28:49;;;;;;;14.77;9.10;;;;;;;10.36;24.85;95489.22;5028555;28;20025;-66
2022/03/25 01:31:16;;;;;;;11.93;7.18;;;;;;;10.32;24.66;95484.31;5028119;28;20504;-69
2022/03/25 01:33:42;;;;;;;11.55;8.23;;;;;;;10.27;24.37;95484.53;5028305;28;20413;-67
2022/03/25 01:36:07;;;;;;;10.05;7.25;;;;;;;10.01;24.34;95437.81;5028093;28;20083;-67
2022/03/25 01:38:34;;;;;;;12.65;7.53;;;;;;;9.84;24.98;95412.97;5026816;28;20416;-67
2022/03/25 01:40:59;;;;;;;13.73;8.48;;;;;;;9.80;24.02;95401.16;5028101;28;20086;-66
2022/03/25 01:43:25;;;;;;;10.48;7.55;;;;;;;10.35;24.71;95486.75;5027607;28;20033;-68
2022/03/25 01:45:50;;;;;;;13.10;7.30;;;;;;;9.87;24.81;95422.25;5028240;28;20030;-69
2022/03/25 01:48:17;;;;;;;12.68;8.25;;;;;;;9.87;24.15;95436.00;5028617;28;20030;-69
2022/03/25 01:50:44;;;;;;;12.55;7.63;;;;;;;10.32;24.36;95492.03;5027753;28;20029;-69
2022/03/25 01:53:17;;;;;;;12.63;7.47;;;;;;;10.35;24.31;95494.47;5027907;28;20184;-65
2022/03/25 01:55:59;;;;;;;13.02;7.05;;;;;;;10.28;24.37;95493.91;5027576;28;20549;-65
2022/03/25 01:58:25;;;;;;;;;;;;;;;10.30;24.85;95487.78;5028445;28;20159;-66
2022/03/25 02:00:51;;;;;;;11.20;8.05;;;;;;;9.97;24.35;95449.22;5028147;28;19917;-67
2022/03/25 02:03:17;;;;;;;11.23;7.82;;;;;;;10.19;24.92;95484.94;5027545;28;20397;-65
2022/03/25 02:05:47;;;;;;;10.55;7.30;;;;;;;10.00;24.94;95474.81;5027801;28;20126;-67
2022/03/25 02:08:13;;;;;;;12.57;8.48;;;;;;;10.13;25.14;95495.59;5027398;28;20020;-66
2022/03/25 02:10:40;;;;;;;10.10;7.13;;;;;;;10.09;24.61;95486.38;5018988;28;20499;-65
2022/03/25 02:13:08;;;;;;;12.38;7.03;;;;;;;9.98;24.98;95465.50;5007884;28;20064;-66
2022/03/25 02:15:39;;;;;;;15.93;8.30;;;;;;;9.99;24.95;95480.06;5007618;28;20118;-65
2022/03/25 02:18:08;;;;;;;10.38;7.60;;;;;;;9.98;24.63;95488.69;5007552;28;20030;-67
2022/03/25 02:20:34;;;;;;;13.15;7.68;;;;;;;9.85;25.36;95467.88;5007217;28;20111;-69
2022/03/25 02:23:01;;;;;;;11.15;7.90;;;;;;;9.82;25.32;95484.34;5006303;28;20073;-66
2022/03/25 02:25:29;;;;;;;10.55;7.75;;;;;;;9.84;25.41;95477.38;5008017;28;20277;-70
2022/03/25 02:27:59;;;;;;;10.18;7.63;;;;;;;9.51;24.88;95424.16;5008029;28;20773;-67
2022/03/25 02:30:27;;;;;;;10.98;7.10;;;;;;;9.75;25.28;95463.22;5008141;28;20038;-66
2022/03/25 02:32:53;;;;;;;13.52;6.93;;;;;;;9.83;25.18;95470.53;5008612;28;20030;-66
2022/03/25 02:35:19;;;;;;;13.00;8.20;;;;;;;9.78;25.37;95471.72;5007756;28;20033;-68
2022/03/25 02:37:45;;;;;;;10.88;7.78;;;;;;;9.78;24.91;95476.84;5016711;28;20037;-67
2022/03/25 02:40:11;;;;;;;12.70;8.23;;;;;;;9.76;25.45;95476.94;5031253;28;20029;-68
2022/03/25 02:42:36;;;;;;;10.27;8.25;;;;;;;9.70;25.47;95484.97;5031309;28;20044;-68
2022/03/25 02:45:04;;;;;;;12.63;8.48;;;;;;;9.71;25.59;95486.66;5030920;28;20033;-65
2022/03/25 02:47:29;;;;;;;12.10;8.45;;;;;;;9.70;25.52;95482.41;5031661;28;20048;-67
2022/03/25 02:49:54;;;;;;;14.77;8.65;;;;;;;9.09;25.91;95380.88;5031176;28;20029;-66
2022/03/25 02:52:20;;;;;;;11.32;8.27;;;;;;;9.47;25.59;95448.38;5019821;28;20033;-66
2022/03/25 02:54:45;;;;;;;14.25;8.32;;;;;;;9.63;25.17;95478.50;5011591;28;20033;-70
2022/03/25 02:57:11;;;;;;;12.40;7.05;;;;;;;9.54;25.42;95469.47;5011575;28;20084;-67
2022/03/25 02:59:36;;;;;;;13.20;8.30;;;;;;;9.56;25.95;95478.81;5011591;28;20085;-70
2022/03/25 03:02:02;;;;;;;14.95;8.68;;;;;;;9.45;25.86;95477.69;5011392;28;20037;-69
2022/03/25 03:04:28;;;;;;;12.95;7.85;;;;;;;9.44;25.75;95468.31;5011614;28;20096;-67
2022/03/25 03:06:54;;;;;;;12.90;8.75;;;;;;;9.49;25.45;95485.16;5011092;28;20029;-66
2022/03/25 03:09:19;;;;;;;13.00;8.30;;;;;;;9.16;25.61;95462.81;5011425;28;20813;-68
2022/03/25 03:11:44;;;;;;;11.65;8.88;;;;;;;9.25;25.67;95476.13;5011588;28;20029;-68
2022/03/25 03:14:10;;;;;;;11.68;8.10;;;;;;;8.88;25.97;95435.06;5011347;28;20014;-68
2022/03/25 03:16:36;;;;;;;17.33;8.77;;;;;;;9.09;26.51;95497.47;5010969;28;20507;-68
2022/03/25 03:19:01;;;;;;;10.98;7.93;;;;;;;9.05;26.76;95482.25;5010842;28;20058;-65
2022/03/25 03:21:29;;;;;;;11.57;8.13;;;;;;;9.04;26.62;95496.06;5011820;28;20440;-66
2022/03/25 03:23:55;;;;;;;13.05;8.05;;;;;;;8.95;26.53;95498.16;5010544;28;20038;-68
2022/03/25 03:26:21;;;;;;;12.48;8.15;;;;;;;8.91;26.46;95496.63;5011756;28;20043;-66
2022/03/25 03:28:47;;;;;;;14.23;8.40;;;;;;;8.91;26.75;95496.63;5030713;28;20029;-68
2022/03/25 03:31:13;;;;;;;13.75;8.52;;;;;;;8.46;26.60;95441.38;5029456;28;20538;-66
2022/03/25 03:33:38;;;;;;;14.05;8.32;;;;;;;8.80;26.58;95504.03;5010692;28;20083;-67
2022/03/25 03:36:04;;;;;;;13.77;8.32;;;;;;;8.14;27.05;95401.78;5023778;28;20476;-67
2022/03/25 03:38:30;;;;;;;14.20;8.73;;;;;;;8.69;27.07;95502.00;5030106;28;20508;-70
2022/03/25 03:40:55;;;;;;;17.35;9.07;;;;;;;8.70;26.92;95498.50;5030590;28;20030;-70
2022/03/25 03:43:21;;;;;;;11.70;8.68;;;;;;;8.24;27.20;95428.69;5029871;28;20665;-68
2022/03/25 03:45:47;;;;;;;14.13;8.82;;;;;;;8.51;26.84;95475.44;5030519;28;20053;-68
2022/03/25 03:48:12;;;;;;;14.32;8.80;;;;;;;8.59;27.40;95493.88;5030017;28;20476;-65
2022/03/25 03:50:39;;;;;;;15.63;8.65;;;;;;;8.53;27.61;95493.34;5030382;28;20048;-68
2022/03/25 03:53:05;;;;;;;17.85;9.15;;;;;;;8.45;27.76;95494.53;5029899;28;20059;-70
2022/03/25 03:55:31;;;;;;;14.02;9.10;;;;;;;8.43;27.99;95495.53;5013969;28;20129;-68
2022/03/25 03:57:57;;;;;;;14.18;8.13;;;;;;;8.41;27.72;95503.25;5010425;28;20026;-67
2022/03/25 04:00:26;;;;;;;14.73;8.82;;;;;;;8.29;27.75;95486.66;5010702;28;20126;-66
2022/03/25 04:02:52;;;;;;;15.45;9.85;;;;;;;7.74;28.01;95407.03;5010610;28;20026;-67
2022/03/25 04:05:17;;;;;;;15.90;10.27;;;;;;;8.25;28.02;95485.16;5010215;28;20029;-69
2022/03/25 04:07:45;;;;;;;13.18;8.68;;;;;;;8.33;28.29;95497.66;5009961;28;20452;-68
2022/03/25 04:10:12;;;;;;;12.23;8.23;;;;;;;8.37;27.60;95500.91;5010031;28;20065;-66
2022/03/25 04:12:38;;;;;;;13.40;9.02;;;;;;;8.51;27.50;95496.00;5010340;28;20723;-67
2022/03/25 04:15:05;;;;;;;13.52;8.57;;;;;;;8.58;27.35;95504.25;5027187;28;20029;-68
2022/03/25 04:17:30;;;;;;;12.93;8.10;;;;;;;8.55;27.25;95488.97;5029874;28;20030;-67
2022/03/25 04:19:56;;;;;;;12.35;7.68;;;;;;;8.71;26.98;95499.34;5029546;28;20048;-66
2022/03/25 04:22:21;;;;;;;15.93;8.15;;;;;;;8.68;27.29;95484.06;5029385;28;20140;-68
2022/03/25 04:24:47;;;;;;;18.17;8.27;;;;;;;8.75;26.75;95468.25;5025552;28;20026;-68
2022/03/25 04:27:12;;;;;;;17.08;8.88;;;;;;;8.89;26.58;95490.75;5010049;28;20742;-68
2022/03/25 04:29:37;;;;;;;15.38;8.65;;;;;;;9.03;26.27;95505.50;5010242;28;20500;-66
2022/03/25 04:32:03;;;;;;;11.23;7.47;;;;;;;8.87;26.45;95463.41;5016819;28;20029;-68
2022/03/25 04:34:29;;;;;;;13.05;8.20;;;;;;;9.07;26.09;95477.88;5027841;28;20040;-66
2022/03/25 04:36:54;;;;;;;13.82;8.93;;;;;;;9.04;26.65;95476.28;5026927;28;20033;-66
2022/03/25 04:39:20;;;;;;;14.25;8.02;;;;;;;9.18;26.42;95506.47;5026748;28;20021;-66
2022/03/25 04:41:45;;;;;;;13.35;8.38;;;;;;;8.96;26.17;95474.09;5029436;28;20041;-67
2022/03/25 04:44:11;;;;;;;14.65;8.63;;;;;;;9.06;26.25;95507.91;5016238;28;20026;-69
2022/03/25 04:46:36;;;;;;;14.52;9.13;;;;;;;9.05;26.16;95519.13;5022497;28;20468;-68
2022/03/25 04:49:02;;;;;;;12.63;8.63;;;;;;;8.93;26.60;95510.25;5028994;28;20535;-67
2022/03/25 04:51:27;;;;;;;12.25;8.55;;;;;;;8.87;26.64;95510.56;5010308;28;20034;-66
2022/03/25 04:53:53;;;;;;;17.02;8.80;;;;;;;8.98;26.59;95513.41;5009461;28;20022;-66
2022/03/25 04:56:18;;;;;;;14.65;9.05;;;;;;;8.81;27.05;95485.97;5016693;28;20022;-67
2022/03/25 04:58:44;;;;;;;14.20;9.23;;;;;;;8.71;26.50;95478.78;5016861;28;20469;-67
2022/03/25 05:01:10;;;;;;;14.73;9.68;;;;;;;8.73;26.94;95480.34;5019099;28;20408;-66
2022/03/25 05:03:35;;;;;;;14.43;9.93;;;;;;;8.92;27.00;95515.47;5014358;28;20033;-67
2022/03/25 05:06:01;;;;;;;13.95;8.82;;;;;;;9.04;26.89;95517.44;5027003;28;20101;-65
2022/03/25 05:08:27;;;;;;;14.70;9.27;;;;;;;9.03;26.57;95502.91;5020886;28;20041;-67
2022/03/25 05:10:52;;;;;;;16.10;9.10;;;;;;;9.05;26.91;95511.41;5025573;28;20022;-69
2022/03/25 05:13:18;;;;;;;20.00;8.85;;;;;;;9.01;27.72;95495.28;5021042;28;20777;-68
2022/03/25 05:15:44;;;;;;;17.88;10.57;;;;;;;9.09;26.71;95499.22;5023828;28;20076;-69
2022/03/25 05:18:09;;;;;;;14.70;9.30;;;;;;;9.17;26.41;95497.09;5020866;28;20065;-69
2022/03/25 05:20:36;;;;;;;12.85;9.05;;;;;;;9.46;26.14;95512.81;5024678;28;20041;-66
2022/03/25 05:23:01;;;;;;;17.58;9.95;;;;;;;9.44;26.16;95509.50;5021695;28;20084;-68
2022/03/25 05:25:27;;;;;;;14.15;8.98;;;;;;;9.52;26.64;95531.34;5025394;28;20041;-69
2022/03/25 05:27:59;;;;;;;16.40;9.93;;;;;;;9.68;26.58;95528.00;5024247;28;20025;-69
2022/03/25 05:30:26;;;;;;;17.58;11.18;;;;;;;9.62;26.24;95482.78;5026484;28;20495;-67
2022/03/25 05:32:54;;;;;;;16.98;9.40;;;;;;;9.83;26.30;95521.22;5027916;28;20064;-67
2022/03/25 05:35:20;;;;;;;16.95;9.65;;;;;;;9.80;26.28;95518.81;5019295;28;20042;-67
2022/03/25 05:37:45;;;;;;;14.35;9.23;;;;;;;9.88;25.66;95520.06;5008880;28;20539;-67
2022/03/25 05:40:12;;;;;;;14.93;10.27;;;;;;;9.78;25.99;95495.72;5007934;28;20084;-68
2022/03/25 05:42:38;;;;;;;14.93;10.45;;;;;;;10.01;25.80;95520.25;5008747;28;20040;-69
2022/03/25 05:45:05;;;;;;;13.85;9.48;;;;;;;10.18;25.79;95526.25;5008460;28;20161;-69
2022/03/25 05:47:30;;;;;;;17.77;10.10;;;;;;;10.30;26.13;95526.44;5008755;28;20034;-66
2022/03/25 05:49:57;;;;;;;19.55;10.05;;;;;;;10.36;25.47;95529.63;5008494;28;20083;-67
2022/03/25 05:52:23;;;;;;;21.33;10.73;;;;;;;10.26;25.66;95496.59;5007875;28;20124;-69
2022/03/25 05:54:49;;;;;;;16.33;9.65;;;;;;;10.59;25.44;95526.66;5008272;28;20034;-67
2022/03/25 05:57:15;;;;;;;14.27;9.60;;;;;;;10.76;25.30;95527.47;5022784;28;20540;-68
2022/03/25 05:59:40;;;;;;;14.35;9.63;;;;;;;10.84;25.48;95526.13;5028139;28;20124;-68
2022/03/25 06:02:06;;;;;;;14.07;9.20;;;;;;;10.72;24.45;95498.41;5011690;28;20022;-67
2022/03/25 06:04:31;;;;;;;15.82;9.23;;;;;;;10.93;24.49;95511.03;5011036;28;20451;-68
2022/03/25 06:06:57;;;;;;;15.23;9.45;;;;;;;11.12;24.34;95528.91;5008517;28;20037;-67
2022/03/25 06:09:22;;;;;;;15.98;9.65;;;;;;;11.04;25.01;95512.09;5012284;28;20049;-65
2022/03/25 06:11:48;;;;;;;15.13;9.57;;;;;;;11.12;24.49;95496.16;5011092;28;20044;-68
2022/03/25 06:14:14;;;;;;;16.88;10.80;;;;;;;11.42;24.23;95525.47;5007604;28;20056;-67
2022/03/25 06:16:39;;;;;;;14.50;10.15;;;;;;;11.16;24.01;95469.25;5015173;28;20036;-67
2022/03/25 06:19:05;;;;;;;15.13;8.90;;;;;;;11.56;23.70;95533.25;5007567;28;20081;-68
2022/03/25 06:21:31;;;;;;;15.70;9.48;;;;;;;11.66;23.67;95531.78;5008609;28;20046;-67
2022/03/25 06:23:56;;;;;;;11.45;7.60;;;;;;;11.69;23.31;95530.75;5008030;28;20041;-69
2022/03/25 06:26:22;;;;;;;18.73;9.63;;;;;;;11.87;23.17;95542.59;5010666;28;20052;-66
2022/03/25 06:28:47;;;;;;;21.23;10.82;;;;;;;11.92;23.24;95534.56;5019499;28;20481;-67
2022/03/25 06:31:13;;;;;;;15.38;9.43;;;;;;;11.95;22.89;95531.81;5022244;28;20138;-68
2022/03/25 06:33:39;;;;;;;18.30;9.77;;;;;;;11.48;23.00;95439.88;5025675;28;20034;-68
2022/03/25 06:36:07;;;;;;;16.80;10.32;;;;;;;11.94;23.12;95501.75;5025629;28;20037;-69
2022/03/25 06:38:33;;;;;;;16.52;10.70;;;;;;;12.22;22.95;95537.06;5012635;28;20034;-69
2022/03/25 06:41:01;;;;;;;13.85;9.43;;;;;;;12.31;22.84;95530.50;5022356;28;20037;-68
2022/03/25 06:43:27;;;;;;;15.15;10.40;;;;;;;12.37;22.52;95539.66;5011883;28;20042;-66
2022/03/25 06:45:53;;;;;;;15.90;10.48;;;;;;;12.42;22.73;95541.00;5018342;28;20521;-66
2022/03/25 06:48:18;;;;;;;17.33;9.93;;;;;;;12.25;22.26;95515.38;5007437;28;20117;-67
2022/03/25 06:50:44;;;;;;;17.05;9.35;;;;;;;12.61;27.26;95527.75;5007613;28;20038;-66
2022/03/25 06:53:10;;;;;;;11.43;8.43;;;;;;;12.96;26.18;95522.09;5017775;28;20054;-67
2022/03/25 06:55:36;;;;;;;14.55;10.15;;;;;;;13.16;23.16;95532.91;5023731;28;20025;-67
2022/03/25 06:58:02;;;;;;;15.23;9.93;;;;;;;13.36;27.18;95535.09;5020353;28;20022;-65
2022/03/25 07:00:28;;;;;;;19.20;10.13;;;;;;;13.47;22.96;95542.13;5024363;28;20038;-66
2022/03/25 07:02:54;;;;;;;13.20;9.65;;;;;;;13.54;22.88;95516.63;5024865;28;20028;-64
2022/03/25 07:05:21;;;;;;;19.33;10.15;;;;;;;13.46;22.53;95503.38;5026818;28;20033;-66
2022/03/25 07:07:47;;;;;;;14.60;10.85;;;;;;;13.35;22.42;95486.78;5012830;28;20246;-64
2022/03/25 07:10:15;;;;;;;17.17;11.70;;;;;;;13.53;23.09;95502.03;5007588;28;20030;-64
2022/03/25 07:12:43;;;;;;;14.30;8.95;;;;;;;13.41;23.49;95488.13;5007096;28;20026;-66
2022/03/25 07:15:09;;;;;;;17.05;12.38;;;;;;;13.62;22.46;95503.19;5007797;28;20026;-66
2022/03/25 07:17:37;;;;;;;15.68;12.52;;;;;;;13.62;21.71;95539.47;5010917;28;20113;-67
2022/03/25 07:20:06;;;;;;;20.23;13.50;;;;;;;13.16;21.75;95481.13;5018287;28;20144;-70
2022/03/25 07:22:31;;;;;;;17.73;12.15;;;;;;;13.51;22.08;95534.97;5018564;28;20038;-67
2022/03/25 07:24:57;;;;;;;15.80;10.68;;;;;;;13.14;21.40;95480.41;5017046;28;20081;-68
2022/03/25 07:27:22;;;;;;;20.55;12.07;;;;;;;13.47;21.88;95541.31;5010546;28;20025;-68
2022/03/25 07:29:48;;;;;;;15.32;9.98;;;;;;;13.16;21.52;95538.91;5017270;28;20041;-66
2022/03/25 07:32:13;;;;;;;16.38;11.98;;;;;;;12.83;21.78;95474.63;5021572;28;20041;-67
2022/03/25 07:34:39;;;;;;;16.83;12.20;;;;;;;13.32;22.06;95549.16;5021625;28;20060;-68
2022/03/25 07:37:05;;;;;;;16.75;11.77;;;;;;;13.13;22.26;95522.75;5027942;28;20836;-69
2022/03/25 07:39:31;;;;;;;23.02;14.88;;;;;;;13.31;21.77;95544.03;5021118;28;20029;-68
2022/03/25 07:41:56;;;;;;;22.92;14.63;;;;;;;13.11;22.00;95509.09;5017841;28;20095;-68
2022/03/25 07:44:22;;;;;;;23.35;15.43;;;;;;;13.48;21.61;95548.13;5020935;28;20037;-70
2022/03/25 07:46:48;;;;;;;19.55;13.23;;;;;;;13.31;21.60;95523.31;5010554;28;20168;-68
2022/03/25 07:49:14;;;;;;;22.23;13.77;;;;;;;13.57;22.13;95539.75;5013275;28;20034;-72
2022/03/25 07:51:39;;;;;;;19.42;12.18;;;;;;;13.62;21.05;95535.09;5021716;28;20123;-70
2022/03/25 07:54:06;;;;;;;23.10;13.80;;;;;;;13.57;21.69;95522.44;5021940;28;20050;-68
2022/03/25 07:56:31;;;;;;;20.15;13.93;;;;;;;13.66;21.36;95525.34;5018517;28;20107;-67
2022/03/25 07:58:59;;;;;;;23.77;15.52;;;;;;;13.86;21.07;95557.72;5010509;28;20480;-69
2022/03/25 08:01:25;;;;;;;25.05;14.65;;;;;;;13.70;21.68;95525.03;5029665;28;20030;-68
2022/03/25 08:03:50;;;;;;;22.88;13.20;;;;;;;13.97;21.46;95555.25;5030799;28;20491;-68
2022/03/25 08:06:16;;;;;;;17.85;13.98;;;;;;;13.97;21.51;95550.06;5011002;28;20030;-68
2022/03/25 08:08:41;;;;;;;21.30;11.98;;;;;;;13.84;21.02;95549.19;5010299;28;20022;-67
2022/03/25 08:11:06;;;;;;;20.15;13.23;;;;;;;13.79;21.53;95542.56;5023721;28;20442;-70
2022/03/25 08:13:32;;;;;;;21.30;12.57;;;;;;;13.54;21.70;95511.47;5010910;28;20037;-69
2022/03/25 08:15:58;;;;;;;21.83;14.25;;;;;;;13.12;21.37;95448.59;5011068;28;20060;-69
2022/03/25 08:18:25;;;;;;;20.02;11.45;;;;;;;13.31;21.61;95481.88;5009726;28;20026;-66
2022/03/25 08:20:51;;;;;;;20.58;13.32;;;;;;;13.65;21.75;95488.25;5008401;28;20100;-67
2022/03/25 08:28:52;;;;;;;21.55;13.55;;;;;;;14.20;21.33;95543.28;5010751;28;20106;-69
2022/03/25 08:31:18;;;;;;;23.27;11.70;;;;;;;14.10;20.66;95539.66;5015647;28;20084;-68
2022/03/25 08:33:44;;;;;;;21.35;11.75;;;;;;;13.89;21.63;95514.28;5029769;28;20021;-69
2022/03/25 08:36:10;;;;;;;23.83;13.27;;;;;;;14.23;20.67;95524.94;5028594;28;20025;-68
2022/03/25 08:38:35;;;;;;;24.13;13.27;;;;;;;14.27;21.04;95521.16;5028997;28;20084;-69
2022/03/25 08:41:01;;;;;;;43.33;13.32;;;;;;;14.09;20.72;95504.28;5027270;28;20084;-67
2022/03/25 08:43:27;;;;;;;18.25;12.18;;;;;;;14.20;20.60;95500.94;5009072;28;20083;-66
2022/03/25 08:45:53;;;;;;;25.05;13.02;;;;;;;14.19;20.94;95496.72;5009861;28;20061;-67
2022/03/25 08:48:19;;;;;;;21.88;13.52;;;;;;;14.32;20.97;95493.13;5009760;28;20037;-68
2022/03/25 08:50:44;;;;;;;16.67;12.13;;;;;;;14.55;20.66;95526.19;5010079;28;20412;-70
2022/03/25 08:53:10;;;;;;;18.45;12.88;;;;;;;14.23;20.57;95456.63;5009735;28;20377;-69
2022/03/25 08:55:36;;;;;;;21.27;12.32;;;;;;;14.68;20.46;95519.22;5007344;28;20480;-72
2022/03/25 08:58:02;;;;;;;20.67;11.88;;;;;;;14.63;20.58;95508.34;5009451;28;20269;-70
2022/03/25 09:00:27;;;;;;;18.48;11.85;;;;;;;14.70;20.51;95512.97;5007780;28;20369;-70
2022/03/25 09:02:53;;;;;;;17.45;11.90;;;;;;;14.76;19.88;95498.72;5009742;28;20501;-67
2022/03/25 09:05:19;;;;;;;16.40;9.98;;;;;;;14.81;19.75;95520.00;5009251;28;20398;-70
2022/03/25 09:07:44;;;;;;;16.35;11.57;;;;;;;16.16;19.21;95516.09;5009335;28;20026;-67
2022/03/25 09:10:16;;;;;;;18.70;11.23;;;;;;;18.38;16.80;95508.50;5009205;28;20036;-70
2022/03/25 09:12:42;;;;;;;16.25;10.63;;;;;;;18.55;15.84;95450.41;5008583;28;20025;-69
2022/03/25 09:15:09;;;;;;;17.08;12.43;;;;;;;21.75;14.02;95494.75;5009157;28;20485;-71
2022/03/25 09:17:35;;;;;;;16.15;11.50;;;;;;;22.79;12.69;95455.34;5009055;28;20054;-69
2022/03/25 09:20:05;;;;;;;18.23;11.60;;;;;;;24.75;11.24;95467.41;5008818;28;20111;-70
2022/03/25 09:22:31;;;;;;;19.07;12.67;;;;;;;24.69;11.46;95462.00;5008794;28;20049;-68
2022/03/25 09:24:58;;;;;;;17.98;11.70;;;;;;;25.71;10.55;95450.38;5009466;28;20125;-70
2022/03/25 09:27:24;;;;;;;16.55;11.75;;;;;;;25.89;10.29;95442.91;5006838;28;20030;-72
2022/03/25 09:29:50;;;;;;;15.32;11.63;;;;;;;26.80;9.73;95463.84;5009077;28;20474;-69
2022/03/25 09:32:16;;;;;;;19.50;11.68;;;;;;;27.09;9.55;95433.81;5008990;28;20065;-69
2022/03/25 09:37:26;;;;;;;18.55;11.05;;;;;;;28.37;8.58;95396.59;5008295;28;20040;-70
2022/03/25 09:39:51;;;;;;;19.40;10.52;;;;;;;26.86;8.98;95301.72;5008825;28;20030;-71
2022/03/25 09:42:18;;;;;;;13.63;9.52;;;;;;;27.38;8.85;95463.81;5008859;28;20036;-71
2022/03/25 09:44:45;;;;;;;19.13;9.85;;;;;;;25.68;10.14;95480.63;5008261;28;20030;-72
2022/03/25 09:47:10;;;;;;;10.70;8.15;;;;;;;25.39;10.17;95466.31;5015717;28;20192;-69
2022/03/25 09:49:40;;;;;;;13.55;8.82;;;;;;;25.94;9.82;95435.28;5028436;28;20119;-70
2022/03/25 09:52:06;;;;;;;15.80;10.93;;;;;;;27.32;9.09;95459.31;5028981;28;20417;-68
2022/03/25 09:54:33;;;;;;;18.35;11.48;;;;;;;29.83;8.13;95448.31;5027768;28;20116;-70
2022/03/25 09:56:58;;;;;;;12.85;9.55;;;;;;;28.13;8.38;95466.84;5017399;28;20041;-70
2022/03/25 09:59:24;;;;;;;15.90;10.02;;;;;;;27.32;8.99;95446.88;5008755;28;20034;-70
2022/03/25 10:01:49;;;;;;;13.32;10.02;;;;;;;29.23;8.11;95432.34;5008314;28;20037;-70
2022/03/25 10:04:35;;;;;;;14.70;11.63;;;;;;;30.70;7.65;95460.59;5008061;28;20116;-70
2022/03/25 10:07:00;;;;;;;17.85;10.75;;;;;;;31.19;7.22;95459.09;5007716;28;20568;-68
2022/03/25 10:09:26;;;;;;;20.30;10.43;;;;;;;30.73;6.96;95452.16;5007854;28;20025;-72
2022/03/25 10:11:51;;;;;;;16.60;10.00;;;;;;;29.43;7.83;95389.84;5017254;28;20021;-71
2022/03/25 10:14:18;;;;;;;17.33;10.60;;;;;;;31.90;6.42;95453.66;5027221;28;20418;-68
2022/03/25 10:16:47;;;;;;;18.75;10.75;;;;;;;31.29;6.51;95427.47;5027447;28;20768;-68
2022/03/25 10:19:16;;;;;;;16.55;10.25;;;;;;;30.69;6.87;95457.09;5025703;28;20041;-71
2022/03/25 10:21:50;;;;;;;14.55;9.38;;;;;;;27.82;8.22;95464.56;5027409;28;20068;-73
2022/03/25 10:24:19;;;;;;;13.73;9.57;;;;;;;28.46;8.26;95455.56;5027416;28;20484;-69
2022/03/25 10:26:48;;;;;;;15.75;8.55;;;;;;;27.45;8.65;95454.13;5018543;28;20454;-70
2022/03/25 10:29:23;;;;;;;18.10;9.02;;;;;;;27.39;8.53;95449.59;5007738;28;20461;-71
2022/03/25 10:32:09;;;;;;;11.23;8.27;;;;;;;27.81;8.22;95441.72;5006478;28;20141;-69
2022/03/25 10:34:39;;;;;;;13.27;7.85;;;;;;;26.58;8.98;95407.41;5006187;28;20438;-69
2022/03/25 10:37:10;;;;;;;12.50;7.63;;;;;;;26.20;9.14;95421.63;5007838;28;20042;-68
2022/03/25 10:39:35;;;;;;;14.07;9.77;;;;;;;26.87;9.15;95425.03;5007905;28;20030;-69
2022/03/25 10:42:03;;;;;;;12.07;8.82;;;;;;;28.40;12.22;95360.88;5007609;28;20053;-69
2022/03/25 10:44:41;;;;;;;15.43;9.98;;;;;;;30.13;7.70;95439.88;5005612;28;20661;-68
2022/03/25 10:47:16;;;;;;;14.32;10.13;;;;;;;30.43;7.44;95436.72;5007339;28;20059;-66
2022/03/25 10:49:46;;;;;;;11.85;8.88;;;;;;;31.22;6.24;95401.91;5007266;28;20030;-70
2022/03/25 10:52:27;;;;;;;10.45;7.88;;;;;;;29.35;7.32;95435.22;5007781;28;20026;-70
2022/03/25 10:55:22;;;;;;;13.20;9.32;;;;;;;28.11;8.11;95430.94;5007871;28;20058;-68
2022/03/25 10:57:49;;;;;;;13.77;9.20;;;;;;;28.20;7.96;95396.13;5007207;28;20041;-69
2022/03/25 11:00:16;;;;;;;12.20;9.25;;;;;;;29.29;7.53;95391.72;5010883;28;20034;-70
2022/03/25 11:02:42;;;;;;;10.40;7.75;;;;;;;30.57;6.79;95398.41;5011169;28;20034;-71
2022/03/25 11:05:11;;;;;;;12.95;8.40;;;;;;;31.12;6.54;95392.56;5011116;28;20411;-71
2022/03/25 11:07:38;;;;;;;12.00;8.60;;;;;;;29.83;7.44;95412.97;5010534;28;20037;-70
2022/03/25 11:10:04;;;;;;;10.32;8.10;;;;;;;26.94;8.48;95435.69;5020111;28;20412;-71
2022/03/25 11:12:30;;;;;;;12.70;7.88;;;;;;;26.64;8.61;95408.53;5030266;28;20395;-70
2022/03/25 11:14:58;;;;;;;12.45;8.77;;;;;;;27.33;8.21;95418.56;5031046;28;20113;-70
2022/03/25 11:17:26;;;;;;;10.23;7.00;;;;;;;26.34;8.93;95396.16;5029588;28;20049;-71
2022/03/25 11:19:53;;;;;;;12.15;7.75;;;;;;;26.65;8.90;95426.84;5029193;28;20052;-69
2022/03/25 11:22:20;;;;;;;15.32;7.03;;;;;;;25.80;9.23;95422.88;5030269;28;20556;-70
2022/03/25 11:24:50;;;;;;;14.40;8.82;;;;;;;28.28;8.49;95381.88;5030302;28;20036;-71
2022/03/25 11:27:19;;;;;;;12.80;7.90;;;;;;;29.12;7.43;95385.13;5018170;28;20087;-71
2022/03/25 11:29:48;;;;;;;15.05;8.93;;;;;;;30.72;7.04;95408.75;5010374;28;20091;-71
2022/03/25 11:32:15;;;;;;;14.05;8.77;;;;;;;31.35;6.87;95399.13;5010460;28;20026;-68